sensor_id;sensor_type;location;lat;lon;timestamp;P1;durP1;ratioP1;P2;durP2;ratioP2
7398;SDS011;3740;50.700;7.184;2023-08-01T00:02:26;1.37;;;1.27;;
7398;SDS011;3740;50.700;7.184;2023-08-01T00:04:51;1.20;;;1.07;;
7398;SDS011;3740;50.700;7.184;2023-08-01T00:07:17;2.05;;;1.00;;
7398;SDS011;3740;50.700;7.184;2023-08-01T00:09:42;1.10;;;1.00;;
7398;SDS011;3740;50.700;7.184;2023-08-01T00:12:08;2.33;;;1.77;;
7398;SDS011;3740;50.700;7.184;2023-08-01T00:14:35;2.83;;;1.92;;
7398;SDS011;3740;50.700;7.184;2023-08-01T00:17:01;3.03;;;1.90;;
7398;SDS011;3740;50.700;7.184;2023-08-01T00:19:27;2.55;;;2.20;;
7398;SDS011;3740;50.700;7.184;2023-08-01T00:21:53;1.98;;;1.77;;
7398;SDS011;3740;50.700;7.184;2023-08-01T00:24:18;2.17;;;1.80;;
7398;SDS011;3740;50.700;7.184;2023-08-01T00:26:44;1.70;;;1.23;;
7398;SDS011;3740;50.700;7.184;2023-08-01T00:29:09;1.15;;;1.00;;
7398;SDS011;3740;50.700;7.184;2023-08-01T00:31:35;1.70;;;1.15;;
7398;SDS011;3740;50.700;7.184;2023-08-01T00:34:00;1.00;;;1.00;;
7398;SDS011;3740;50.700;7.184;2023-08-01T00:36:26;2.03;;;1.53;;
7398;SDS011;3740;50.700;7.184;2023-08-01T00:38:51;2.40;;;1.30;;
7398;SDS011;3740;50.700;7.184;2023-08-01T00:41:17;1.80;;;1.67;;
7398;SDS011;3740;50.700;7.184;2023-08-01T00:43:43;1.80;;;1.70;;
7398;SDS011;3740;50.700;7.184;2023-08-01T00:46:08;2.23;;;1.80;;
7398;SDS011;3740;50.700;7.184;2023-08-01T00:48:34;3.33;;;2.00;;
7398;SDS011;3740;50.700;7.184;2023-08-01T00:51:01;1.63;;;1.53;;
7398;SDS011;3740;50.700;7.184;2023-08-01T00:53:29;3.03;;;2.17;;
7398;SDS011;3740;50.700;7.184;2023-08-01T00:55:55;2.30;;;1.97;;
7398;SDS011;3740;50.700;7.184;2023-08-01T00:58:21;2.43;;;2.03;;
7398;SDS011;3740;50.700;7.184;2023-08-01T01:00:47;3.00;;;2.57;;
7398;SDS011;3740;50.700;7.184;2023-08-01T01:03:13;3.17;;;2.30;;
7398;SDS011;3740;50.700;7.184;2023-08-01T01:05:40;2.90;;;2.53;;
7398;SDS011;3740;50.700;7.184;2023-08-01T01:08:27;2.70;;;2.20;;
7398;SDS011;3740;50.700;7.184;2023-08-01T01:10:53;2.60;;;2.40;;
7398;SDS011;3740;50.700;7.184;2023-08-01T01:13:18;2.43;;;2.23;;
7398;SDS011;3740;50.700;7.184;2023-08-01T01:15:44;2.50;;;2.30;;
7398;SDS011;3740;50.700;7.184;2023-08-01T01:18:09;2.38;;;2.22;;
7398;SDS011;3740;50.700;7.184;2023-08-01T01:20:35;1.95;;;1.85;;
7398;SDS011;3740;50.700;7.184;2023-08-01T01:23:01;1.60;;;1.50;;
7398;SDS011;3740;50.700;7.184;2023-08-01T01:25:29;1.73;;;1.13;;
7398;SDS011;3740;50.700;7.184;2023-08-01T01:27:55;1.30;;;1.20;;
7398;SDS011;3740;50.700;7.184;2023-08-01T01:30:23;1.27;;;0.80;;
7398;SDS011;3740;50.700;7.184;2023-08-01T01:32:49;1.75;;;1.13;;
7398;SDS011;3740;50.700;7.184;2023-08-01T01:35:15;1.50;;;1.40;;
7398;SDS011;3740;50.700;7.184;2023-08-01T01:37:40;1.42;;;1.25;;
7398;SDS011;3740;50.700;7.184;2023-08-01T01:40:06;1.98;;;1.30;;
7398;SDS011;3740;50.700;7.184;2023-08-01T01:42:32;1.02;;;0.90;;
7398;SDS011;3740;50.700;7.184;2023-08-01T01:44:57;1.67;;;1.40;;
7398;SDS011;3740;50.700;7.184;2023-08-01T01:47:23;4.30;;;2.40;;
7398;SDS011;3740;50.700;7.184;2023-08-01T01:49:49;2.30;;;1.90;;
7398;SDS011;3740;50.700;7.184;2023-08-01T01:52:14;2.28;;;2.08;;
7398;SDS011;3740;50.700;7.184;2023-08-01T01:54:40;2.75;;;2.08;;
7398;SDS011;3740;50.700;7.184;2023-08-01T01:57:05;2.97;;;2.47;;
7398;SDS011;3740;50.700;7.184;2023-08-01T01:59:31;2.77;;;2.00;;
7398;SDS011;3740;50.700;7.184;2023-08-01T02:01:56;3.13;;;1.63;;
7398;SDS011;3740;50.700;7.184;2023-08-01T02:04:22;2.30;;;1.90;;
7398;SDS011;3740;50.700;7.184;2023-08-01T02:06:47;1.92;;;1.83;;
7398;SDS011;3740;50.700;7.184;2023-08-01T02:09:13;3.23;;;1.90;;
7398;SDS011;3740;50.700;7.184;2023-08-01T02:11:39;2.70;;;2.17;;
7398;SDS011;3740;50.700;7.184;2023-08-01T02:14:04;2.35;;;1.73;;
7398;SDS011;3740;50.700;7.184;2023-08-01T02:16:30;2.38;;;1.90;;
7398;SDS011;3740;50.700;7.184;2023-08-01T02:18:55;1.47;;;1.37;;
7398;SDS011;3740;50.700;7.184;2023-08-01T02:21:21;1.88;;;1.38;;
7398;SDS011;3740;50.700;7.184;2023-08-01T02:23:46;1.60;;;1.50;;
7398;SDS011;3740;50.700;7.184;2023-08-01T02:26:12;2.75;;;1.30;;
7398;SDS011;3740;50.700;7.184;2023-08-01T02:28:38;2.25;;;1.50;;
7398;SDS011;3740;50.700;7.184;2023-08-01T02:31:03;1.83;;;1.70;;
7398;SDS011;3740;50.700;7.184;2023-08-01T02:33:29;1.60;;;1.50;;
7398;SDS011;3740;50.700;7.184;2023-08-01T02:35:54;3.15;;;1.70;;
7398;SDS011;3740;50.700;7.184;2023-08-01T02:38:20;3.10;;;1.85;;
7398;SDS011;3740;50.700;7.184;2023-08-01T02:40:45;1.85;;;1.48;;
7398;SDS011;3740;50.700;7.184;2023-08-01T02:43:11;1.40;;;1.30;;
7398;SDS011;3740;50.700;7.184;2023-08-01T02:45:37;1.80;;;1.58;;
7398;SDS011;3740;50.700;7.184;2023-08-01T02:48:02;1.73;;;1.20;;
7398;SDS011;3740;50.700;7.184;2023-08-01T02:50:28;1.20;;;1.20;;
7398;SDS011;3740;50.700;7.184;2023-08-01T02:52:53;1.90;;;1.20;;
7398;SDS011;3740;50.700;7.184;2023-08-01T02:55:19;2.38;;;1.38;;
7398;SDS011;3740;50.700;7.184;2023-08-01T02:57:44;1.15;;;1.10;;
7398;SDS011;3740;50.700;7.184;2023-08-01T03:00:11;6.63;;;1.70;;
7398;SDS011;3740;50.700;7.184;2023-08-01T03:02:40;2.35;;;1.67;;
7398;SDS011;3740;50.700;7.184;2023-08-01T03:05:06;1.60;;;1.50;;
7398;SDS011;3740;50.700;7.184;2023-08-01T03:07:33;2.28;;;1.85;;
7398;SDS011;3740;50.700;7.184;2023-08-01T03:09:58;1.85;;;1.75;;
7398;SDS011;3740;50.700;7.184;2023-08-01T03:12:24;2.03;;;1.80;;
7398;SDS011;3740;50.700;7.184;2023-08-01T03:14:49;2.43;;;2.13;;
7398;SDS011;3740;50.700;7.184;2023-08-01T03:17:15;2.00;;;1.90;;
7398;SDS011;3740;50.700;7.184;2023-08-01T03:19:41;1.50;;;1.40;;
7398;SDS011;3740;50.700;7.184;2023-08-01T03:22:07;2.20;;;1.83;;
7398;SDS011;3740;50.700;7.184;2023-08-01T03:24:34;1.70;;;1.60;;
7398;SDS011;3740;50.700;7.184;2023-08-01T03:27:00;2.07;;;1.83;;
7398;SDS011;3740;50.700;7.184;2023-08-01T03:29:25;1.60;;;1.50;;
7398;SDS011;3740;50.700;7.184;2023-08-01T03:31:51;1.60;;;1.50;;
7398;SDS011;3740;50.700;7.184;2023-08-01T03:34:17;3.47;;;1.93;;
7398;SDS011;3740;50.700;7.184;2023-08-01T03:36:43;2.93;;;2.07;;
7398;SDS011;3740;50.700;7.184;2023-08-01T03:39:08;2.50;;;1.80;;
7398;SDS011;3740;50.700;7.184;2023-08-01T03:41:35;2.47;;;2.20;;
7398;SDS011;3740;50.700;7.184;2023-08-01T03:44:00;2.73;;;2.27;;
7398;SDS011;3740;50.700;7.184;2023-08-01T03:46:26;2.70;;;2.40;;
7398;SDS011;3740;50.700;7.184;2023-08-01T03:48:52;2.67;;;2.30;;
7398;SDS011;3740;50.700;7.184;2023-08-01T03:51:17;2.73;;;2.53;;
7398;SDS011;3740;50.700;7.184;2023-08-01T03:53:44;3.97;;;2.73;;
7398;SDS011;3740;50.700;7.184;2023-08-01T03:56:10;2.80;;;2.37;;
7398;SDS011;3740;50.700;7.184;2023-08-01T03:58:36;2.60;;;2.40;;
7398;SDS011;3740;50.700;7.184;2023-08-01T04:01:02;3.87;;;2.63;;
7398;SDS011;3740;50.700;7.184;2023-08-01T04:03:27;2.60;;;2.40;;
7398;SDS011;3740;50.700;7.184;2023-08-01T04:05:53;2.57;;;2.37;;
7398;SDS011;3740;50.700;7.184;2023-08-01T04:08:19;3.50;;;2.90;;
7398;SDS011;3740;50.700;7.184;2023-08-01T04:10:45;2.40;;;2.20;;
7398;SDS011;3740;50.700;7.184;2023-08-01T04:13:10;2.57;;;2.37;;
7398;SDS011;3740;50.700;7.184;2023-08-01T04:15:36;2.60;;;2.37;;
7398;SDS011;3740;50.700;7.184;2023-08-01T04:18:01;2.63;;;2.40;;
7398;SDS011;3740;50.700;7.184;2023-08-01T04:20:27;2.57;;;2.37;;
7398;SDS011;3740;50.700;7.184;2023-08-01T04:22:52;3.38;;;2.97;;
7398;SDS011;3740;50.700;7.184;2023-08-01T04:25:18;3.20;;;2.60;;
7398;SDS011;3740;50.700;7.184;2023-08-01T04:27:44;3.37;;;3.07;;
7398;SDS011;3740;50.700;7.184;2023-08-01T04:30:09;2.60;;;2.40;;
7398;SDS011;3740;50.700;7.184;2023-08-01T04:32:35;3.23;;;2.73;;
7398;SDS011;3740;50.700;7.184;2023-08-01T04:35:01;3.10;;;2.70;;
7398;SDS011;3740;50.700;7.184;2023-08-01T04:37:26;2.90;;;2.50;;
7398;SDS011;3740;50.700;7.184;2023-08-01T04:39:52;2.95;;;2.55;;
7398;SDS011;3740;50.700;7.184;2023-08-01T04:42:17;2.97;;;2.60;;
7398;SDS011;3740;50.700;7.184;2023-08-01T04:44:43;2.77;;;2.57;;
7398;SDS011;3740;50.700;7.184;2023-08-01T04:47:09;3.13;;;2.80;;
7398;SDS011;3740;50.700;7.184;2023-08-01T04:49:34;2.83;;;2.63;;
7398;SDS011;3740;50.700;7.184;2023-08-01T04:52:00;3.40;;;3.00;;
7398;SDS011;3740;50.700;7.184;2023-08-01T04:54:25;3.83;;;3.40;;
7398;SDS011;3740;50.700;7.184;2023-08-01T04:56:51;3.40;;;3.10;;
7398;SDS011;3740;50.700;7.184;2023-08-01T04:59:16;3.20;;;2.80;;
7398;SDS011;3740;50.700;7.184;2023-08-01T05:01:42;3.92;;;3.40;;
7398;SDS011;3740;50.700;7.184;2023-08-01T05:04:07;5.40;;;3.73;;
7398;SDS011;3740;50.700;7.184;2023-08-01T05:06:33;4.50;;;4.10;;
7398;SDS011;3740;50.700;7.184;2023-08-01T05:08:59;4.53;;;4.10;;
7398;SDS011;3740;50.700;7.184;2023-08-01T05:11:25;4.83;;;4.43;;
7398;SDS011;3740;50.700;7.184;2023-08-01T05:13:50;6.00;;;4.75;;
7398;SDS011;3740;50.700;7.184;2023-08-01T05:16:16;6.53;;;4.53;;
7398;SDS011;3740;50.700;7.184;2023-08-01T05:18:41;5.17;;;4.67;;
7398;SDS011;3740;50.700;7.184;2023-08-01T05:21:07;7.27;;;4.90;;
7398;SDS011;3740;50.700;7.184;2023-08-01T05:23:32;4.83;;;4.43;;
7398;SDS011;3740;50.700;7.184;2023-08-01T05:25:58;5.30;;;4.00;;
7398;SDS011;3740;50.700;7.184;2023-08-01T05:28:24;5.13;;;4.10;;
7398;SDS011;3740;50.700;7.184;2023-08-01T05:30:49;4.60;;;4.20;;
7398;SDS011;3740;50.700;7.184;2023-08-01T05:33:15;5.83;;;4.53;;
7398;SDS011;3740;50.700;7.184;2023-08-01T05:35:40;4.57;;;4.03;;
7398;SDS011;3740;50.700;7.184;2023-08-01T05:38:06;4.90;;;4.40;;
7398;SDS011;3740;50.700;7.184;2023-08-01T05:40:31;8.32;;;4.45;;
7398;SDS011;3740;50.700;7.184;2023-08-01T05:42:57;4.83;;;3.90;;
7398;SDS011;3740;50.700;7.184;2023-08-01T05:45:22;4.70;;;4.30;;
7398;SDS011;3740;50.700;7.184;2023-08-01T05:47:48;5.33;;;4.63;;
7398;SDS011;3740;50.700;7.184;2023-08-01T05:50:13;5.17;;;4.67;;
7398;SDS011;3740;50.700;7.184;2023-08-01T05:52:39;5.40;;;4.73;;
7398;SDS011;3740;50.700;7.184;2023-08-01T05:55:05;7.70;;;4.47;;
7398;SDS011;3740;50.700;7.184;2023-08-01T05:57:31;5.10;;;4.50;;
7398;SDS011;3740;50.700;7.184;2023-08-01T05:59:56;4.70;;;4.13;;
7398;SDS011;3740;50.700;7.184;2023-08-01T06:02:22;6.03;;;4.77;;
7398;SDS011;3740;50.700;7.184;2023-08-01T06:04:47;5.13;;;4.63;;
7398;SDS011;3740;50.700;7.184;2023-08-01T06:07:13;4.97;;;4.47;;
7398;SDS011;3740;50.700;7.184;2023-08-01T06:09:38;4.93;;;4.40;;
7398;SDS011;3740;50.700;7.184;2023-08-01T06:12:04;6.63;;;4.60;;
7398;SDS011;3740;50.700;7.184;2023-08-01T06:14:30;4.30;;;3.80;;
7398;SDS011;3740;50.700;7.184;2023-08-01T06:16:56;5.00;;;4.50;;
7398;SDS011;3740;50.700;7.184;2023-08-01T06:19:21;5.15;;;4.30;;
7398;SDS011;3740;50.700;7.184;2023-08-01T06:21:47;5.50;;;4.20;;
7398;SDS011;3740;50.700;7.184;2023-08-01T06:24:12;4.85;;;4.10;;
7398;SDS011;3740;50.700;7.184;2023-08-01T06:26:38;4.80;;;4.23;;
7398;SDS011;3740;50.700;7.184;2023-08-01T06:29:04;6.25;;;5.75;;
7398;SDS011;3740;50.700;7.184;2023-08-01T06:31:29;10.68;;;9.50;;
7398;SDS011;3740;50.700;7.184;2023-08-01T06:33:55;9.68;;;8.68;;
7398;SDS011;3740;50.700;7.184;2023-08-01T06:36:20;8.57;;;7.38;;
7398;SDS011;3740;50.700;7.184;2023-08-01T06:38:46;10.43;;;9.23;;
7398;SDS011;3740;50.700;7.184;2023-08-01T06:41:12;11.93;;;10.13;;
7398;SDS011;3740;50.700;7.184;2023-08-01T06:43:37;5.20;;;4.70;;
7398;SDS011;3740;50.700;7.184;2023-08-01T06:46:03;5.50;;;5.00;;
7398;SDS011;3740;50.700;7.184;2023-08-01T06:48:29;5.05;;;4.47;;
7398;SDS011;3740;50.700;7.184;2023-08-01T06:50:55;5.35;;;4.85;;
7398;SDS011;3740;50.700;7.184;2023-08-01T06:53:21;5.90;;;5.30;;
7398;SDS011;3740;50.700;7.184;2023-08-01T06:55:47;4.75;;;3.97;;
7398;SDS011;3740;50.700;7.184;2023-08-01T06:58:12;4.50;;;3.90;;
7398;SDS011;3740;50.700;7.184;2023-08-01T07:00:38;4.57;;;4.10;;
7398;SDS011;3740;50.700;7.184;2023-08-01T07:03:03;5.07;;;4.57;;
7398;SDS011;3740;50.700;7.184;2023-08-01T07:05:29;6.03;;;5.03;;
7398;SDS011;3740;50.700;7.184;2023-08-01T07:07:54;5.72;;;5.20;;
7398;SDS011;3740;50.700;7.184;2023-08-01T07:10:21;5.83;;;5.30;;
7398;SDS011;3740;50.700;7.184;2023-08-01T07:12:46;4.75;;;4.20;;
7398;SDS011;3740;50.700;7.184;2023-08-01T07:15:13;5.82;;;4.07;;
7398;SDS011;3740;50.700;7.184;2023-08-01T07:17:38;5.20;;;4.70;;
7398;SDS011;3740;50.700;7.184;2023-08-01T07:20:04;6.38;;;4.20;;
7398;SDS011;3740;50.700;7.184;2023-08-01T07:22:30;5.70;;;4.20;;
7398;SDS011;3740;50.700;7.184;2023-08-01T07:24:55;7.00;;;4.95;;
7398;SDS011;3740;50.700;7.184;2023-08-01T07:27:21;4.85;;;4.20;;
7398;SDS011;3740;50.700;7.184;2023-08-01T07:29:46;7.53;;;4.70;;
7398;SDS011;3740;50.700;7.184;2023-08-01T07:32:12;5.85;;;4.45;;
7398;SDS011;3740;50.700;7.184;2023-08-01T07:34:38;7.60;;;4.80;;
7398;SDS011;3740;50.700;7.184;2023-08-01T07:37:03;7.22;;;4.55;;
7398;SDS011;3740;50.700;7.184;2023-08-01T07:39:29;6.40;;;4.60;;
7398;SDS011;3740;50.700;7.184;2023-08-01T07:41:57;6.28;;;4.63;;
7398;SDS011;3740;50.700;7.184;2023-08-01T07:44:23;5.00;;;4.05;;
7398;SDS011;3740;50.700;7.184;2023-08-01T07:46:48;5.13;;;4.63;;
7398;SDS011;3740;50.700;7.184;2023-08-01T07:49:14;5.25;;;4.75;;
7398;SDS011;3740;50.700;7.184;2023-08-01T07:51:39;6.93;;;4.93;;
7398;SDS011;3740;50.700;7.184;2023-08-01T07:54:05;4.65;;;4.13;;
7398;SDS011;3740;50.700;7.184;2023-08-01T07:56:31;7.05;;;5.05;;
7398;SDS011;3740;50.700;7.184;2023-08-01T07:58:56;5.35;;;4.53;;
7398;SDS011;3740;50.700;7.184;2023-08-01T08:01:22;4.93;;;4.05;;
7398;SDS011;3740;50.700;7.184;2023-08-01T08:03:48;6.68;;;4.70;;
7398;SDS011;3740;50.700;7.184;2023-08-01T08:06:13;4.90;;;4.47;;
7398;SDS011;3740;50.700;7.184;2023-08-01T08:08:39;5.15;;;4.20;;
7398;SDS011;3740;50.700;7.184;2023-08-01T08:11:04;7.10;;;4.53;;
7398;SDS011;3740;50.700;7.184;2023-08-01T08:13:30;6.15;;;5.57;;
7398;SDS011;3740;50.700;7.184;2023-08-01T08:15:56;4.85;;;4.43;;
7398;SDS011;3740;50.700;7.184;2023-08-01T08:18:22;4.60;;;4.10;;
7398;SDS011;3740;50.700;7.184;2023-08-01T08:20:47;6.10;;;4.55;;
7398;SDS011;3740;50.700;7.184;2023-08-01T08:23:13;5.40;;;4.90;;
7398;SDS011;3740;50.700;7.184;2023-08-01T08:25:39;5.20;;;4.70;;
7398;SDS011;3740;50.700;7.184;2023-08-01T08:28:05;8.32;;;5.22;;
7398;SDS011;3740;50.700;7.184;2023-08-01T08:30:30;6.75;;;5.00;;
7398;SDS011;3740;50.700;7.184;2023-08-01T08:32:57;8.18;;;4.55;;
7398;SDS011;3740;50.700;7.184;2023-08-01T08:35:23;6.25;;;5.25;;
7398;SDS011;3740;50.700;7.184;2023-08-01T08:37:49;7.13;;;5.25;;
7398;SDS011;3740;50.700;7.184;2023-08-01T08:40:14;8.38;;;5.18;;
7398;SDS011;3740;50.700;7.184;2023-08-01T08:42:40;9.60;;;6.13;;
7398;SDS011;3740;50.700;7.184;2023-08-01T08:45:06;7.18;;;5.32;;
7398;SDS011;3740;50.700;7.184;2023-08-01T08:47:35;6.38;;;5.07;;
7398;SDS011;3740;50.700;7.184;2023-08-01T08:50:03;6.85;;;5.13;;
7398;SDS011;3740;50.700;7.184;2023-08-01T08:52:29;8.35;;;5.63;;
7398;SDS011;3740;50.700;7.184;2023-08-01T08:54:55;5.57;;;4.47;;
7398;SDS011;3740;50.700;7.184;2023-08-01T08:57:21;8.43;;;5.90;;
7398;SDS011;3740;50.700;7.184;2023-08-01T08:59:47;7.25;;;4.93;;
7398;SDS011;3740;50.700;7.184;2023-08-01T09:02:14;7.70;;;5.30;;
7398;SDS011;3740;50.700;7.184;2023-08-01T09:04:41;5.95;;;5.03;;
7398;SDS011;3740;50.700;7.184;2023-08-01T09:07:07;8.15;;;5.20;;
7398;SDS011;3740;50.700;7.184;2023-08-01T09:09:36;10.48;;;5.18;;
7398;SDS011;3740;50.700;7.184;2023-08-01T09:12:02;7.47;;;4.97;;
7398;SDS011;3740;50.700;7.184;2023-08-01T09:14:27;6.32;;;4.57;;
7398;SDS011;3740;50.700;7.184;2023-08-01T09:16:54;8.30;;;5.18;;
7398;SDS011;3740;50.700;7.184;2023-08-01T09:19:20;5.93;;;4.10;;
7398;SDS011;3740;50.700;7.184;2023-08-01T09:21:47;6.18;;;4.45;;
7398;SDS011;3740;50.700;7.184;2023-08-01T09:24:14;5.55;;;4.10;;
7398;SDS011;3740;50.700;7.184;2023-08-01T09:26:44;4.75;;;4.22;;
7398;SDS011;3740;50.700;7.184;2023-08-01T09:29:10;10.05;;;5.03;;
7398;SDS011;3740;50.700;7.184;2023-08-01T09:31:37;4.47;;;4.00;;
7398;SDS011;3740;50.700;7.184;2023-08-01T09:34:05;5.30;;;4.30;;
7398;SDS011;3740;50.700;7.184;2023-08-01T09:36:32;6.40;;;4.40;;
7398;SDS011;3740;50.700;7.184;2023-08-01T09:38:58;5.22;;;3.90;;
7398;SDS011;3740;50.700;7.184;2023-08-01T09:41:28;5.53;;;4.03;;
7398;SDS011;3740;50.700;7.184;2023-08-01T09:43:54;6.05;;;4.20;;
7398;SDS011;3740;50.700;7.184;2023-08-01T09:46:20;8.38;;;4.05;;
7398;SDS011;3740;50.700;7.184;2023-08-01T09:48:46;6.82;;;3.70;;
7398;SDS011;3740;50.700;7.184;2023-08-01T09:51:12;6.75;;;3.70;;
7398;SDS011;3740;50.700;7.184;2023-08-01T09:54:00;4.35;;;3.60;;
7398;SDS011;3740;50.700;7.184;2023-08-01T09:56:26;6.65;;;3.20;;
7398;SDS011;3740;50.700;7.184;2023-08-01T09:58:53;5.97;;;3.50;;
7398;SDS011;3740;50.700;7.184;2023-08-01T10:01:22;6.47;;;3.90;;
7398;SDS011;3740;50.700;7.184;2023-08-01T10:03:50;5.45;;;3.60;;
7398;SDS011;3740;50.700;7.184;2023-08-01T10:06:21;4.10;;;3.22;;
7398;SDS011;3740;50.700;7.184;2023-08-01T10:08:49;3.90;;;3.10;;
7398;SDS011;3740;50.700;7.184;2023-08-01T10:11:22;7.40;;;3.25;;
7398;SDS011;3740;50.700;7.184;2023-08-01T10:13:48;8.05;;;3.92;;
7398;SDS011;3740;50.700;7.184;2023-08-01T10:16:14;5.18;;;3.20;;
7398;SDS011;3740;50.700;7.184;2023-08-01T10:18:40;5.68;;;3.58;;
7398;SDS011;3740;50.700;7.184;2023-08-01T10:21:07;6.10;;;3.60;;
7398;SDS011;3740;50.700;7.184;2023-08-01T10:23:36;5.55;;;3.50;;
7398;SDS011;3740;50.700;7.184;2023-08-01T10:26:04;4.55;;;3.47;;
7398;SDS011;3740;50.700;7.184;2023-08-01T10:28:35;3.95;;;3.50;;
7398;SDS011;3740;50.700;7.184;2023-08-01T10:31:08;4.82;;;3.20;;
7398;SDS011;3740;50.700;7.184;2023-08-01T10:33:35;5.50;;;2.78;;
7398;SDS011;3740;50.700;7.184;2023-08-01T10:36:01;5.82;;;3.40;;
7398;SDS011;3740;50.700;7.184;2023-08-01T10:38:56;3.95;;;3.15;;
7398;SDS011;3740;50.700;7.184;2023-08-01T10:41:32;4.68;;;3.10;;
7398;SDS011;3740;50.700;7.184;2023-08-01T10:44:14;4.10;;;3.03;;
7398;SDS011;3740;50.700;7.184;2023-08-01T10:46:59;3.35;;;2.88;;
7398;SDS011;3740;50.700;7.184;2023-08-01T10:49:33;4.72;;;3.10;;
7398;SDS011;3740;50.700;7.184;2023-08-01T10:52:04;3.78;;;2.65;;
7398;SDS011;3740;50.700;7.184;2023-08-01T10:54:58;4.82;;;2.67;;
7398;SDS011;3740;50.700;7.184;2023-08-01T10:57:26;5.30;;;3.03;;
7398;SDS011;3740;50.700;7.184;2023-08-01T10:59:53;3.63;;;2.75;;
7398;SDS011;3740;50.700;7.184;2023-08-01T11:02:21;4.38;;;2.67;;
7398;SDS011;3740;50.700;7.184;2023-08-01T11:04:55;3.65;;;2.80;;
7398;SDS011;3740;50.700;7.184;2023-08-01T11:07:21;4.90;;;3.13;;
7398;SDS011;3740;50.700;7.184;2023-08-01T11:09:46;3.30;;;2.70;;
7398;SDS011;3740;50.700;7.184;2023-08-01T11:12:12;2.80;;;2.60;;
7398;SDS011;3740;50.700;7.184;2023-08-01T11:14:37;5.72;;;2.72;;
7398;SDS011;3740;50.700;7.184;2023-08-01T11:17:03;2.97;;;2.58;;
7398;SDS011;3740;50.700;7.184;2023-08-01T11:19:29;4.03;;;2.65;;
7398;SDS011;3740;50.700;7.184;2023-08-01T11:21:55;6.32;;;2.80;;
7398;SDS011;3740;50.700;7.184;2023-08-01T11:24:22;2.83;;;1.90;;
7398;SDS011;3740;50.700;7.184;2023-08-01T11:26:49;4.32;;;2.80;;
7398;SDS011;3740;50.700;7.184;2023-08-01T11:29:16;2.80;;;2.50;;
7398;SDS011;3740;50.700;7.184;2023-08-01T11:31:58;3.20;;;2.17;;
7398;SDS011;3740;50.700;7.184;2023-08-01T11:34:25;3.75;;;2.45;;
7398;SDS011;3740;50.700;7.184;2023-08-01T11:36:50;5.57;;;3.00;;
7398;SDS011;3740;50.700;7.184;2023-08-01T11:39:17;4.32;;;2.55;;
7398;SDS011;3740;50.700;7.184;2023-08-01T11:41:43;3.95;;;2.90;;
7398;SDS011;3740;50.700;7.184;2023-08-01T11:44:09;3.42;;;2.70;;
7398;SDS011;3740;50.700;7.184;2023-08-01T11:46:36;4.20;;;2.83;;
7398;SDS011;3740;50.700;7.184;2023-08-01T11:49:03;4.65;;;3.30;;
7398;SDS011;3740;50.700;7.184;2023-08-01T11:51:38;4.43;;;2.70;;
7398;SDS011;3740;50.700;7.184;2023-08-01T11:54:05;4.13;;;2.85;;
7398;SDS011;3740;50.700;7.184;2023-08-01T11:56:32;3.72;;;2.83;;
7398;SDS011;3740;50.700;7.184;2023-08-01T11:58:58;3.50;;;2.80;;
7398;SDS011;3740;50.700;7.184;2023-08-01T12:01:24;4.53;;;3.05;;
7398;SDS011;3740;50.700;7.184;2023-08-01T12:03:51;6.50;;;2.65;;
7398;SDS011;3740;50.700;7.184;2023-08-01T12:06:18;3.85;;;2.70;;
7398;SDS011;3740;50.700;7.184;2023-08-01T12:08:46;4.20;;;2.83;;
7398;SDS011;3740;50.700;7.184;2023-08-01T12:11:25;2.83;;;2.33;;
7398;SDS011;3740;50.700;7.184;2023-08-01T12:14:05;3.47;;;2.63;;
7398;SDS011;3740;50.700;7.184;2023-08-01T12:16:39;4.05;;;2.60;;
7398;SDS011;3740;50.700;7.184;2023-08-01T12:19:10;4.28;;;2.45;;
7398;SDS011;3740;50.700;7.184;2023-08-01T12:21:42;3.95;;;2.22;;
7398;SDS011;3740;50.700;7.184;2023-08-01T12:24:07;2.78;;;2.00;;
7398;SDS011;3740;50.700;7.184;2023-08-01T12:26:33;3.20;;;2.57;;
7398;SDS011;3740;50.700;7.184;2023-08-01T12:28:59;3.45;;;2.33;;
7398;SDS011;3740;50.700;7.184;2023-08-01T12:31:24;3.28;;;2.10;;
7398;SDS011;3740;50.700;7.184;2023-08-01T12:33:50;3.33;;;2.15;;
7398;SDS011;3740;50.700;7.184;2023-08-01T12:36:17;3.85;;;2.13;;
7398;SDS011;3740;50.700;7.184;2023-08-01T12:38:44;2.25;;;2.05;;
7398;SDS011;3740;50.700;7.184;2023-08-01T12:41:09;2.60;;;2.00;;
7398;SDS011;3740;50.700;7.184;2023-08-01T12:43:35;2.70;;;1.80;;
7398;SDS011;3740;50.700;7.184;2023-08-01T12:46:01;2.45;;;2.00;;
7398;SDS011;3740;50.700;7.184;2023-08-01T12:48:27;3.20;;;2.17;;
7398;SDS011;3740;50.700;7.184;2023-08-01T12:50:53;3.85;;;2.03;;
7398;SDS011;3740;50.700;7.184;2023-08-01T12:53:20;2.42;;;2.20;;
7398;SDS011;3740;50.700;7.184;2023-08-01T12:55:46;2.50;;;2.05;;
7398;SDS011;3740;50.700;7.184;2023-08-01T12:58:13;2.90;;;2.30;;
7398;SDS011;3740;50.700;7.184;2023-08-01T13:00:40;3.45;;;2.45;;
7398;SDS011;3740;50.700;7.184;2023-08-01T13:03:06;3.25;;;2.22;;
7398;SDS011;3740;50.700;7.184;2023-08-01T13:05:36;2.65;;;2.40;;
7398;SDS011;3740;50.700;7.184;2023-08-01T13:08:04;3.05;;;2.00;;
7398;SDS011;3740;50.700;7.184;2023-08-01T13:10:30;1.60;;;1.50;;
7398;SDS011;3740;50.700;7.184;2023-08-01T13:13:00;3.03;;;1.48;;
7398;SDS011;3740;50.700;7.184;2023-08-01T13:15:26;1.40;;;1.20;;
7398;SDS011;3740;50.700;7.184;2023-08-01T13:17:52;5.22;;;1.67;;
7398;SDS011;3740;50.700;7.184;2023-08-01T13:20:18;1.73;;;1.27;;
7398;SDS011;3740;50.700;7.184;2023-08-01T13:22:49;1.55;;;1.40;;
7398;SDS011;3740;50.700;7.184;2023-08-01T13:25:16;1.92;;;1.50;;
7398;SDS011;3740;50.700;7.184;2023-08-01T13:27:42;2.80;;;1.67;;
7398;SDS011;3740;50.700;7.184;2023-08-01T13:30:08;3.28;;;1.55;;
7398;SDS011;3740;50.700;7.184;2023-08-01T13:32:35;2.17;;;1.55;;
7398;SDS011;3740;50.700;7.184;2023-08-01T13:35:01;2.28;;;1.60;;
7398;SDS011;3740;50.700;7.184;2023-08-01T13:37:27;2.85;;;1.77;;
7398;SDS011;3740;50.700;7.184;2023-08-01T13:39:54;2.55;;;1.38;;
7398;SDS011;3740;50.700;7.184;2023-08-01T13:42:21;1.67;;;1.58;;
7398;SDS011;3740;50.700;7.184;2023-08-01T13:44:47;2.67;;;1.80;;
7398;SDS011;3740;50.700;7.184;2023-08-01T13:47:12;1.80;;;1.70;;
7398;SDS011;3740;50.700;7.184;2023-08-01T13:49:38;1.40;;;1.30;;
7398;SDS011;3740;50.700;7.184;2023-08-01T13:52:04;2.28;;;1.42;;
7398;SDS011;3740;50.700;7.184;2023-08-01T13:54:30;2.47;;;2.17;;
7398;SDS011;3740;50.700;7.184;2023-08-01T13:56:55;2.03;;;1.60;;
7398;SDS011;3740;50.700;7.184;2023-08-01T13:59:21;1.50;;;1.40;;
7398;SDS011;3740;50.700;7.184;2023-08-01T14:01:47;3.22;;;2.15;;
7398;SDS011;3740;50.700;7.184;2023-08-01T14:04:12;2.03;;;1.92;;
7398;SDS011;3740;50.700;7.184;2023-08-01T14:06:41;2.17;;;1.80;;
7398;SDS011;3740;50.700;7.184;2023-08-01T14:09:07;1.77;;;1.67;;
7398;SDS011;3740;50.700;7.184;2023-08-01T14:11:34;3.53;;;2.45;;
7398;SDS011;3740;50.700;7.184;2023-08-01T14:13:59;1.98;;;1.73;;
7398;SDS011;3740;50.700;7.184;2023-08-01T14:16:25;3.03;;;1.90;;
7398;SDS011;3740;50.700;7.184;2023-08-01T14:18:51;3.40;;;1.88;;
7398;SDS011;3740;50.700;7.184;2023-08-01T14:21:16;3.42;;;2.10;;
7398;SDS011;3740;50.700;7.184;2023-08-01T14:23:42;3.03;;;1.95;;
7398;SDS011;3740;50.700;7.184;2023-08-01T14:26:08;3.00;;;2.40;;
7398;SDS011;3740;50.700;7.184;2023-08-01T14:28:33;3.65;;;2.22;;
7398;SDS011;3740;50.700;7.184;2023-08-01T14:31:02;3.22;;;2.50;;
7398;SDS011;3740;50.700;7.184;2023-08-01T14:33:29;4.00;;;2.60;;
7398;SDS011;3740;50.700;7.184;2023-08-01T14:35:55;3.38;;;2.75;;
7398;SDS011;3740;50.700;7.184;2023-08-01T14:38:20;3.72;;;2.28;;
7398;SDS011;3740;50.700;7.184;2023-08-01T14:40:46;3.88;;;2.28;;
7398;SDS011;3740;50.700;7.184;2023-08-01T14:43:11;3.08;;;2.45;;
7398;SDS011;3740;50.700;7.184;2023-08-01T14:45:37;4.20;;;2.03;;
7398;SDS011;3740;50.700;7.184;2023-08-01T14:48:07;5.18;;;2.40;;
7398;SDS011;3740;50.700;7.184;2023-08-01T14:50:33;3.55;;;2.17;;
7398;SDS011;3740;50.700;7.184;2023-08-01T14:53:02;2.55;;;2.20;;
7398;SDS011;3740;50.700;7.184;2023-08-01T14:55:28;3.22;;;2.17;;
7398;SDS011;3740;50.700;7.184;2023-08-01T14:57:54;3.10;;;2.20;;
7398;SDS011;3740;50.700;7.184;2023-08-01T15:00:20;2.92;;;2.20;;
7398;SDS011;3740;50.700;7.184;2023-08-01T15:02:45;4.07;;;2.55;;
7398;SDS011;3740;50.700;7.184;2023-08-01T15:05:12;2.40;;;1.83;;
7398;SDS011;3740;50.700;7.184;2023-08-01T15:07:37;2.83;;;1.90;;
7398;SDS011;3740;50.700;7.184;2023-08-01T15:10:03;3.20;;;2.13;;
7398;SDS011;3740;50.700;7.184;2023-08-01T15:12:29;4.00;;;2.08;;